createdAt,value
2022-08-06T00:00:02.891Z,26.20
2022-08-06T00:02:25.940Z,26.30
2022-08-06T00:04:55.074Z,26.40
2022-08-06T00:07:22.351Z,26.30
2022-08-06T00:09:57.169Z,26.20
2022-08-06T00:12:29.804Z,26.10
2022-08-06T00:14:56.126Z,26.10
2022-08-06T00:17:23.587Z,26.10
2022-08-06T00:20:00.387Z,26.10
2022-08-06T00:22:28.843Z,25.90
2022-08-06T00:24:55.932Z,25.80
2022-08-06T00:27:28.856Z,25.60
2022-08-06T00:29:57.458Z,25.90
2022-08-06T00:32:32.700Z,26.10
2022-08-06T00:34:59.721Z,25.90
2022-08-06T00:37:28.762Z,26.00
2022-08-06T00:40:15.763Z,26.00
2022-08-06T00:42:44.765Z,26.20
2022-08-06T00:45:23.528Z,26.10
2022-08-06T00:48:01.942Z,26.20
2022-08-06T00:50:30.296Z,25.80
2022-08-06T00:52:56.899Z,25.80
2022-08-06T00:55:32.031Z,25.60
2022-08-06T00:58:02.238Z,25.60
2022-08-06T01:00:30.216Z,25.60
2022-08-06T01:02:57.413Z,25.80
2022-08-06T01:06:04.245Z,26.00
2022-08-06T01:08:09.367Z,25.80
2022-08-06T01:10:42.163Z,25.60
2022-08-06T01:13:25.673Z,25.80
2022-08-06T01:16:08.466Z,25.50
2022-08-06T01:18:35.271Z,25.50
2022-08-06T01:21:57.307Z,25.70
2022-08-06T01:23:51.216Z,25.70
2022-08-06T01:26:18.700Z,25.70
2022-08-06T01:28:46.407Z,25.70
2022-08-06T01:31:17.974Z,25.90
2022-08-06T01:33:46.745Z,25.90
2022-08-06T01:36:13.876Z,25.50
2022-08-06T01:38:43.830Z,25.40
2022-08-06T01:41:16.815Z,25.70
2022-08-06T01:44:05.396Z,25.80
2022-08-06T01:46:31.294Z,25.70
2022-08-06T01:49:09.025Z,25.70
2022-08-06T01:52:29.433Z,25.70
2022-08-06T01:54:32.434Z,25.90
2022-08-06T01:56:58.945Z,25.60
2022-08-06T01:59:24.922Z,25.80
2022-08-06T02:01:53.277Z,25.90
2022-08-06T02:04:21.751Z,26.00
2022-08-06T02:06:49.619Z,25.70
2022-08-06T02:09:22.795Z,25.60
2022-08-06T02:12:03.454Z,25.80
2022-08-06T02:14:33.422Z,25.50
2022-08-06T02:17:00.557Z,25.50
2022-08-06T02:19:47.927Z,25.50
2022-08-06T02:22:27.423Z,25.30
2022-08-06T02:24:57.090Z,25.30
2022-08-06T02:27:24.139Z,25.30
2022-08-06T02:30:09.823Z,25.40
2022-08-06T02:32:35.813Z,25.50
2022-08-06T02:35:09.173Z,25.80
2022-08-06T02:38:01.717Z,25.80
2022-08-06T02:40:21.474Z,25.80
2022-08-06T02:42:48.376Z,26.00
2022-08-06T02:45:14.465Z,25.80
2022-08-06T02:47:56.085Z,25.70
2022-08-06T02:50:27.158Z,26.00
2022-08-06T02:52:57.749Z,26.00
2022-08-06T02:55:24.622Z,26.10
2022-08-06T02:58:00.166Z,25.90
2022-08-06T03:00:29.562Z,26.30
2022-08-06T03:02:55.788Z,26.30
2022-08-06T03:05:55.095Z,26.20
2022-08-06T03:08:08.170Z,26.40
2022-08-06T03:10:36.722Z,26.40
2022-08-06T03:13:03.632Z,26.50
2022-08-06T03:15:57.906Z,26.50
2022-08-06T03:18:16.110Z,26.50
2022-08-06T03:20:42.118Z,26.40
2022-08-06T03:23:08.075Z,26.30
2022-08-06T03:25:34.035Z,26.40
2022-08-06T03:28:08.250Z,26.40
2022-08-06T03:30:34.409Z,26.60
2022-08-06T03:33:07.085Z,26.60
2022-08-06T03:35:50.247Z,26.60
2022-08-06T03:38:17.185Z,26.40
2022-08-06T03:40:43.155Z,26.60
2022-08-06T03:43:26.836Z,26.70
2022-08-06T03:45:56.129Z,26.60
2022-08-06T03:48:36.008Z,26.60
2022-08-06T03:51:07.940Z,26.60
2022-08-06T03:53:38.747Z,26.60
2022-08-06T03:56:14.482Z,26.50
2022-08-06T03:58:40.797Z,26.50
2022-08-06T04:01:07.661Z,26.60
2022-08-06T04:03:39.658Z,26.60
2022-08-06T04:06:06.194Z,26.70
2022-08-06T04:08:41.893Z,26.70
2022-08-06T04:12:13.283Z,26.70
2022-08-06T04:14:06.128Z,26.60
2022-08-06T04:16:35.789Z,26.60
2022-08-06T04:19:02.842Z,26.70
2022-08-06T04:23:08.562Z,26.60
2022-08-06T04:24:15.597Z,26.50
2022-08-06T04:26:41.954Z,26.50
2022-08-06T04:29:09.129Z,26.60
2022-08-06T04:32:11.746Z,26.70
2022-08-06T04:34:27.109Z,26.80
2022-08-06T04:36:55.568Z,26.90
2022-08-06T04:39:24.846Z,26.70
2022-08-06T04:41:56.853Z,26.90
2022-08-06T04:44:27.778Z,26.90
2022-08-06T04:46:54.458Z,26.90
2022-08-06T04:49:20.559Z,27.00
2022-08-06T04:52:34.512Z,27.00
2022-08-06T04:54:33.134Z,27.10
2022-08-06T04:57:21.928Z,27.10
2022-08-06T04:59:50.421Z,27.00
2022-08-06T05:02:17.215Z,27.10
2022-08-06T05:04:44.658Z,26.80
2022-08-06T05:07:13.553Z,27.10
2022-08-06T05:09:43.419Z,27.10
2022-08-06T05:12:10.193Z,27.20
2022-08-06T05:14:36.121Z,27.40
2022-08-06T05:17:02.111Z,27.40
2022-08-06T05:19:28.874Z,27.50
2022-08-06T05:22:10.233Z,27.30
2022-08-06T05:24:39.440Z,27.20
2022-08-06T05:27:24.509Z,27.40
2022-08-06T05:30:06.237Z,27.20
2022-08-06T05:32:33.584Z,27.10
2022-08-06T05:35:00.410Z,26.90
2022-08-06T05:38:00.758Z,27.00
2022-08-06T05:40:20.440Z,27.00
2022-08-06T05:43:00.625Z,26.90
2022-08-06T05:45:26.592Z,27.00
2022-08-06T05:47:56.518Z,27.00
2022-08-06T05:50:25.265Z,27.20
2022-08-06T05:52:51.576Z,27.50
2022-08-06T05:55:19.034Z,27.50
2022-08-06T05:57:53.895Z,27.80
2022-08-06T06:00:41.738Z,27.90
2022-08-06T06:03:08.536Z,28.00
2022-08-06T06:06:10.640Z,28.00
2022-08-06T06:08:39.945Z,27.90
2022-08-06T06:11:22.023Z,28.30
2022-08-06T06:14:07.805Z,28.20
2022-08-06T06:16:35.748Z,28.40
2022-08-06T06:19:03.282Z,28.60
2022-08-06T06:21:36.652Z,28.60
2022-08-06T06:24:04.471Z,28.30
2022-08-06T06:26:33.842Z,28.40
2022-08-06T06:29:01.316Z,28.30
2022-08-06T06:32:04.387Z,28.10
2022-08-06T06:34:23.441Z,28.00
2022-08-06T06:36:49.487Z,27.90
2022-08-06T06:39:15.472Z,27.90
2022-08-06T06:41:44.613Z,28.10
2022-08-06T06:44:17.650Z,28.30
2022-08-06T06:46:49.498Z,28.20
2022-08-06T06:50:00.489Z,28.20
2022-08-06T06:52:08.355Z,28.50
2022-08-06T06:54:37.935Z,28.60
2022-08-06T06:57:04.226Z,28.90
2022-08-06T07:00:00.863Z,29.10
2022-08-06T07:02:20.814Z,29.40
2022-08-06T07:04:50.320Z,29.30
2022-08-06T07:07:23.380Z,29.60
2022-08-06T07:09:53.316Z,29.60
2022-08-06T07:12:25.624Z,29.50
2022-08-06T07:15:00.812Z,29.70
2022-08-06T07:17:45.488Z,29.50
2022-08-06T07:20:13.150Z,29.40
2022-08-06T07:24:07.946Z,29.40
2022-08-06T07:25:29.237Z,29.40
2022-08-06T07:27:56.715Z,29.60
2022-08-06T07:30:26.119Z,29.60
2022-08-06T07:32:55.477Z,29.70
2022-08-06T07:35:21.460Z,29.80
2022-08-06T07:37:47.596Z,29.70
2022-08-06T07:40:13.538Z,29.60
2022-08-06T07:42:41.660Z,30.00
2022-08-06T07:45:11.143Z,30.00
2022-08-06T07:47:54.040Z,30.00
2022-08-06T07:50:23.455Z,30.10
2022-08-06T07:52:49.970Z,30.10
2022-08-06T07:55:15.969Z,30.00
2022-08-06T07:57:55.230Z,29.90
2022-08-06T08:00:24.415Z,29.90
2022-08-06T08:02:53.602Z,29.60
2022-08-06T08:05:19.594Z,29.70
2022-08-06T08:07:57.177Z,29.70
2022-08-06T08:10:28.945Z,29.50
2022-08-06T08:12:55.615Z,29.30
2022-08-06T08:15:23.132Z,29.30
2022-08-06T08:17:57.288Z,29.30
2022-08-06T08:20:24.593Z,29.30
2022-08-06T08:22:53.719Z,29.20
2022-08-06T08:25:21.873Z,29.50
2022-08-06T08:28:12.158Z,29.40
2022-08-06T08:30:38.968Z,29.30
2022-08-06T08:33:05.214Z,29.20
2022-08-06T08:35:38.044Z,29.30
2022-08-06T08:38:04.076Z,29.50
2022-08-06T08:40:30.020Z,29.30
2022-08-06T08:42:56.025Z,29.50
2022-08-06T08:45:21.966Z,29.30
2022-08-06T08:47:59.851Z,29.20
2022-08-06T08:50:29.508Z,29.20
2022-08-06T08:52:55.465Z,29.20
2022-08-06T08:57:10.174Z,28.90
2022-08-06T08:58:37.994Z,28.50
2022-08-06T09:00:54.782Z,28.30
2022-08-06T09:03:20.869Z,28.50
2022-08-06T09:05:47.408Z,28.40
2022-08-06T09:08:39.715Z,28.40
2022-08-06T09:10:59.692Z,28.20
2022-08-06T09:13:50.758Z,27.70
2022-08-06T09:16:19.345Z,27.50
2022-08-06T09:18:46.133Z,27.30
2022-08-06T09:21:12.082Z,27.50
2022-08-06T09:23:49.372Z,27.30
2022-08-06T09:26:54.300Z,27.10
2022-08-06T09:29:23.690Z,27.20
2022-08-06T09:31:55.989Z,27.20
2022-08-06T09:34:38.653Z,27.50
2022-08-06T09:37:05.379Z,27.60
2022-08-06T09:39:31.661Z,27.90
2022-08-06T09:42:12.719Z,27.80
2022-08-06T09:44:41.869Z,27.60
2022-08-06T09:47:08.152Z,27.50
2022-08-06T09:49:47.381Z,27.30
2022-08-06T09:52:23.544Z,27.50
2022-08-06T09:54:53.150Z,27.10
2022-08-06T09:57:22.883Z,26.80
2022-08-06T09:59:50.665Z,26.50
2022-08-06T10:02:16.747Z,26.30
2022-08-06T10:04:44.639Z,25.90
2022-08-06T10:07:10.764Z,25.70
2022-08-06T10:09:41.595Z,25.70
2022-08-06T10:12:11.546Z,25.50
2022-08-06T10:14:39.361Z,25.70
2022-08-06T10:17:08.196Z,25.60
2022-08-06T10:19:36.106Z,25.40
2022-08-06T10:22:03.052Z,25.60
2022-08-06T10:24:41.796Z,25.60
2022-08-06T10:27:15.126Z,25.60
2022-08-06T10:29:41.314Z,25.30
2022-08-06T10:32:11.689Z,25.60
2022-08-06T10:34:38.430Z,25.60
2022-08-06T10:37:10.970Z,25.80
2022-08-06T10:40:07.557Z,26.00
2022-08-06T10:42:37.141Z,26.00
2022-08-06T10:45:12.462Z,25.70
2022-08-06T10:48:56.767Z,25.60
2022-08-06T10:50:38.386Z,25.80
2022-08-06T10:53:11.394Z,25.80
2022-08-06T10:55:57.330Z,25.90
2022-08-06T10:58:23.292Z,26.30
2022-08-06T11:00:56.026Z,26.50
2022-08-06T11:03:22.611Z,26.50
2022-08-06T11:05:54.119Z,26.50
2022-08-06T11:08:40.433Z,26.50
2022-08-06T11:11:06.608Z,26.50
2022-08-06T11:13:52.662Z,26.40
2022-08-06T11:16:19.854Z,25.90
2022-08-06T11:18:53.562Z,25.80
2022-08-06T11:21:21.203Z,26.00
2022-08-06T11:23:58.407Z,25.90
2022-08-06T11:26:27.268Z,25.90
2022-08-06T11:28:53.211Z,26.20
2022-08-06T11:31:19.214Z,26.20
2022-08-06T11:33:45.964Z,26.40
2022-08-06T11:36:12.044Z,26.20
2022-08-06T11:38:38.774Z,26.10
2022-08-06T11:41:44.760Z,26.20
2022-08-06T11:44:04.080Z,26.40
2022-08-06T11:46:36.030Z,26.30
2022-08-06T11:49:06.128Z,26.50
2022-08-06T11:51:32.225Z,26.40
2022-08-06T11:54:08.240Z,26.20
2022-08-06T11:56:35.399Z,26.50
2022-08-06T11:59:01.339Z,26.70
2022-08-06T12:01:33.771Z,26.80
2022-08-06T12:04:01.120Z,26.90
2022-08-06T12:06:28.911Z,27.10
2022-08-06T12:08:55.696Z,27.20
2022-08-06T12:11:23.737Z,27.00
2022-08-06T12:13:57.648Z,26.90
2022-08-06T12:16:24.027Z,26.30
2022-08-06T12:18:52.787Z,26.20
2022-08-06T12:21:18.750Z,26.40
2022-08-06T12:23:56.165Z,26.50
2022-08-06T12:26:28.447Z,26.60
2022-08-06T12:28:59.628Z,26.70
2022-08-06T12:31:35.923Z,26.80
2022-08-06T12:34:05.184Z,26.70
2022-08-06T12:36:35.046Z,27.00
2022-08-06T12:39:01.548Z,27.50
2022-08-06T12:41:45.595Z,27.50
2022-08-06T12:44:13.136Z,27.20
2022-08-06T12:46:40.781Z,27.50
2022-08-06T12:49:06.902Z,27.60
2022-08-06T12:51:33.167Z,27.40
2022-08-06T12:53:59.702Z,27.90
2022-08-06T12:56:32.017Z,27.90
2022-08-06T12:58:58.842Z,27.80
2022-08-06T13:02:08.309Z,27.80
2022-08-06T13:04:16.828Z,27.80
2022-08-06T13:06:43.290Z,28.00
2022-08-06T13:09:10.060Z,27.90
2022-08-06T13:11:36.994Z,28.00
2022-08-06T13:14:17.654Z,28.20
2022-08-06T13:16:53.984Z,28.50
2022-08-06T13:19:21.240Z,27.90
2022-08-06T13:21:58.443Z,27.90
2022-08-06T13:24:24.437Z,27.90
2022-08-06T13:26:57.160Z,28.20
2022-08-06T13:30:31.380Z,28.30
2022-08-06T13:32:19.909Z,28.40
2022-08-06T13:34:55.018Z,27.30
2022-08-06T13:37:20.963Z,27.20
2022-08-06T13:40:05.053Z,26.70
2022-08-06T13:42:35.303Z,26.80
2022-08-06T13:45:01.599Z,26.70
2022-08-06T13:47:39.044Z,26.50
2022-08-06T13:50:13.591Z,26.60
2022-08-06T13:52:45.541Z,26.40
2022-08-06T13:55:26.808Z,26.40
2022-08-06T13:58:12.755Z,26.20
2022-08-06T14:00:41.132Z,26.00
2022-08-06T14:03:07.098Z,26.40
2022-08-06T14:05:39.788Z,26.80
2022-08-06T14:08:14.971Z,27.10
2022-08-06T14:10:52.855Z,27.40
2022-08-06T14:13:20.661Z,26.80
2022-08-06T14:15:46.847Z,26.90
2022-08-06T14:18:13.723Z,27.30
2022-08-06T14:20:42.100Z,27.60
2022-08-06T14:23:08.241Z,27.60
2022-08-06T14:25:52.639Z,27.00
2022-08-06T14:28:20.267Z,26.60
2022-08-06T14:30:46.755Z,27.20
2022-08-06T14:33:19.319Z,27.60
2022-08-06T14:35:52.686Z,27.40
2022-08-06T14:38:18.800Z,27.20
2022-08-06T14:41:01.206Z,27.20
2022-08-06T14:52:19.444Z,26.90
2022-08-06T14:54:56.193Z,26.80
2022-08-06T14:58:03.137Z,26.70
2022-08-06T15:00:21.656Z,26.70
2022-08-06T15:03:04.557Z,27.00
2022-08-06T15:05:41.738Z,27.50
2022-08-06T15:08:20.132Z,27.10
2022-08-06T15:10:46.091Z,27.00
2022-08-06T15:13:12.128Z,26.90
2022-08-06T15:15:47.014Z,26.70
2022-08-06T15:18:40.128Z,26.80
2022-08-06T15:20:59.674Z,26.70
2022-08-06T15:23:31.137Z,27.10
2022-08-06T15:26:46.954Z,27.50
2022-08-06T15:28:57.497Z,27.50
2022-08-06T15:31:25.470Z,27.80
2022-08-06T15:33:56.314Z,28.00
2022-08-06T15:36:22.305Z,28.40
2022-08-06T15:38:56.040Z,28.70
2022-08-06T15:41:23.074Z,28.90
2022-08-06T15:43:51.035Z,29.20
2022-08-06T15:46:28.625Z,29.40
2022-08-06T15:48:55.875Z,29.30
2022-08-06T15:51:30.436Z,29.20
2022-08-06T15:53:58.129Z,28.90
2022-08-06T15:56:39.064Z,28.70
2022-08-06T15:59:12.157Z,28.80
2022-08-06T16:01:52.771Z,28.50
2022-08-06T16:04:28.411Z,28.90
2022-08-06T16:06:55.236Z,29.10
2022-08-06T16:09:28.045Z,29.20
2022-08-06T16:11:57.166Z,29.10
2022-08-06T16:14:33.373Z,29.00
2022-08-06T16:17:02.660Z,28.80
2022-08-06T16:19:29.190Z,28.10
2022-08-06T16:22:00.014Z,27.90
2022-08-06T16:24:26.557Z,28.10
2022-08-06T16:26:57.578Z,28.10
2022-08-06T16:29:24.768Z,28.20
2022-08-06T16:31:54.003Z,28.20
2022-08-06T16:34:25.502Z,28.00
2022-08-06T16:36:56.442Z,27.80
2022-08-06T16:39:35.741Z,27.40
2022-08-06T16:42:03.182Z,27.10
2022-08-06T16:44:35.295Z,27.50
2022-08-06T16:47:05.119Z,27.90
2022-08-06T16:50:17.252Z,27.90
2022-08-06T16:52:44.306Z,27.40
2022-08-06T16:55:08.213Z,27.10
2022-08-06T16:57:37.299Z,27.40
2022-08-06T17:00:04.837Z,27.30
2022-08-06T17:02:30.840Z,27.10
2022-08-06T17:04:59.577Z,27.40
2022-08-06T17:10:25.070Z,26.80
2022-08-06T17:12:57.952Z,27.00
2022-08-06T17:15:36.371Z,27.10
2022-08-06T17:18:03.726Z,27.20
2022-08-06T17:20:29.971Z,27.00
2022-08-06T17:22:57.028Z,27.00
2022-08-06T17:25:50.886Z,27.10
2022-08-06T17:28:14.230Z,26.90
2022-08-06T17:30:40.261Z,26.50
2022-08-06T17:33:08.253Z,26.60
2022-08-06T17:36:29.928Z,26.60
2022-08-06T17:38:20.901Z,26.50
2022-08-06T17:40:50.032Z,26.40
2022-08-06T17:43:23.080Z,26.40
2022-08-06T17:46:25.268Z,26.60
2022-08-06T17:48:48.477Z,26.70
2022-08-06T17:51:17.234Z,26.60
2022-08-06T17:53:53.149Z,26.60
2022-08-06T17:56:30.247Z,26.50
2022-08-06T17:59:11.191Z,26.20
2022-08-06T18:01:45.735Z,26.30
2022-08-06T18:04:21.952Z,26.10
2022-08-06T18:06:49.025Z,26.00
2022-08-06T18:10:08.899Z,26.00
2022-08-06T18:12:00.908Z,26.00
2022-08-06T18:14:32.426Z,26.20
2022-08-06T18:16:59.530Z,26.20
2022-08-06T18:19:34.357Z,26.30
2022-08-06T18:22:12.222Z,26.10
2022-08-06T18:24:50.646Z,25.90
2022-08-06T18:27:53.600Z,26.00
2022-08-06T18:30:03.853Z,26.10
2022-08-06T18:32:29.834Z,26.10
2022-08-06T18:34:55.772Z,25.70
2022-08-06T18:37:24.883Z,25.60
2022-08-06T18:40:17.511Z,25.90
2022-08-06T18:42:42.417Z,25.90
2022-08-06T18:45:14.537Z,25.90
2022-08-06T18:47:41.328Z,25.90
2022-08-06T18:50:07.638Z,25.90
2022-08-06T18:52:35.142Z,25.70
2022-08-06T18:55:03.332Z,25.80
2022-08-06T18:57:37.954Z,25.80
2022-08-06T19:00:18.336Z,25.50
2022-08-06T19:02:44.664Z,25.60
2022-08-06T19:05:13.241Z,25.80
2022-08-06T19:07:40.530Z,25.70
2022-08-06T19:10:15.983Z,25.70
2022-08-06T19:12:44.755Z,25.80
2022-08-06T19:15:10.693Z,25.70
2022-08-06T19:18:09.880Z,25.20
2022-08-06T19:20:23.793Z,25.30
2022-08-06T19:22:53.344Z,25.50
2022-08-06T19:25:20.167Z,25.50
2022-08-06T19:28:30.856Z,25.40
2022-08-06T19:30:41.690Z,25.40
2022-08-06T19:33:13.926Z,25.40
2022-08-06T19:36:07.430Z,25.40
2022-08-06T21:30:10.395Z,24.00
2022-08-06T21:32:40.519Z,24.00
2022-08-06T21:35:06.842Z,23.60
2022-08-06T21:37:57.628Z,23.70
2022-08-06T21:40:29.090Z,23.80
2022-08-06T21:42:59.836Z,23.80
2022-08-06T21:45:26.628Z,24.10
2022-08-06T21:48:13.625Z,24.20
2022-08-06T21:50:43.102Z,24.40
2022-08-06T21:53:49.503Z,24.20
2022-08-06T21:56:36.921Z,24.20
2022-08-06T21:58:46.332Z,23.90
2022-08-06T22:01:14.450Z,23.90
2022-08-06T22:04:37.070Z,24.00
2022-08-06T22:06:38.028Z,24.30
2022-08-06T22:09:05.091Z,23.90
2022-08-06T22:12:40.736Z,23.80
2022-08-06T22:14:17.557Z,23.80
2022-08-06T22:16:54.984Z,23.70
2022-08-06T22:19:21.047Z,23.90
2022-08-06T22:21:59.586Z,24.10
2022-08-06T22:24:27.019Z,24.10
2022-08-06T22:26:56.374Z,24.10
2022-08-06T22:29:23.114Z,24.30
2022-08-06T22:31:56.950Z,24.20
2022-08-06T22:34:25.991Z,24.40
2022-08-06T22:37:03.888Z,23.80
2022-08-06T22:39:29.990Z,23.70
2022-08-06T22:42:07.099Z,24.00
2022-08-06T22:44:57.272Z,23.40
2022-08-06T22:47:19.677Z,23.60
2022-08-06T22:50:00.774Z,24.00
2022-08-06T22:52:51.381Z,23.80
2022-08-06T22:55:18.266Z,23.90
2022-08-06T22:59:01.703Z,23.90
2022-08-06T23:00:30.617Z,24.00
2022-08-06T23:02:56.730Z,24.30
2022-08-06T23:05:23.329Z,23.90
2022-08-06T23:07:54.494Z,23.80
2022-08-06T23:10:20.676Z,24.00
2022-08-06T23:12:46.627Z,23.90
2022-08-06T23:15:30.526Z,23.90
2022-08-06T23:18:00.340Z,23.30
2022-08-06T23:20:34.755Z,22.90
2022-08-06T23:23:01.599Z,23.00
2022-08-06T23:26:00.856Z,23.30
2022-08-06T23:28:13.795Z,23.10
2022-08-06T23:30:41.911Z,22.90
2022-08-06T23:33:07.907Z,22.90
2022-08-06T23:35:35.420Z,22.70
2022-08-06T23:38:32.436Z,22.80
2022-08-06T23:40:50.056Z,22.50
2022-08-06T23:43:17.393Z,22.40
2022-08-06T23:45:47.372Z,21.90
2022-08-06T23:48:14.210Z,21.80
2022-08-06T23:50:52.545Z,21.70
2022-08-06T23:54:06.107Z,21.50
2022-08-06T23:56:05.994Z,21.20
2022-08-06T23:58:31.980Z,21.20
